sensor_id;sensor_type;location;lat;lon;timestamp;P1;durP1;ratioP1;P2;durP2;ratioP2
12861;SDS011;6499;66.348;14.134;2023-11-21T00:01:27;1.10;;;0.80;;
12861;SDS011;6499;66.348;14.134;2023-11-21T00:03:53;1.77;;;0.77;;
12861;SDS011;6499;66.348;14.134;2023-11-21T00:06:20;0.60;;;0.60;;
12861;SDS011;6499;66.348;14.134;2023-11-21T00:08:47;0.53;;;0.50;;
12861;SDS011;6499;66.348;14.134;2023-11-21T00:11:14;0.53;;;0.53;;
12861;SDS011;6499;66.348;14.134;2023-11-21T00:13:48;0.60;;;0.60;;
12861;SDS011;6499;66.348;14.134;2023-11-21T00:16:18;0.40;;;0.40;;
12861;SDS011;6499;66.348;14.134;2023-11-21T00:18:45;0.63;;;0.50;;
12861;SDS011;6499;66.348;14.134;2023-11-21T00:21:13;0.40;;;0.40;;
12861;SDS011;6499;66.348;14.134;2023-11-21T00:23:40;1.37;;;0.60;;
12861;SDS011;6499;66.348;14.134;2023-11-21T00:26:07;0.57;;;0.57;;
12861;SDS011;6499;66.348;14.134;2023-11-21T00:28:33;1.23;;;0.90;;
12861;SDS011;6499;66.348;14.134;2023-11-21T00:31:00;0.73;;;0.70;;
12861;SDS011;6499;66.348;14.134;2023-11-21T00:33:28;0.87;;;0.50;;
12861;SDS011;6499;66.348;14.134;2023-11-21T00:35:55;1.00;;;0.50;;
12861;SDS011;6499;66.348;14.134;2023-11-21T00:38:21;1.83;;;0.83;;
12861;SDS011;6499;66.348;14.134;2023-11-21T00:40:50;0.60;;;0.50;;
12861;SDS011;6499;66.348;14.134;2023-11-21T00:43:18;0.77;;;0.47;;
12861;SDS011;6499;66.348;14.134;2023-11-21T00:45:45;0.63;;;0.43;;
12861;SDS011;6499;66.348;14.134;2023-11-21T00:48:14;0.97;;;0.70;;
12861;SDS011;6499;66.348;14.134;2023-11-21T00:50:42;1.67;;;0.60;;
12861;SDS011;6499;66.348;14.134;2023-11-21T00:53:08;1.43;;;0.70;;
12861;SDS011;6499;66.348;14.134;2023-11-21T00:55:36;1.67;;;0.90;;
12861;SDS011;6499;66.348;14.134;2023-11-21T00:58:05;0.40;;;0.40;;
12861;SDS011;6499;66.348;14.134;2023-11-21T01:00:32;0.60;;;0.57;;
12861;SDS011;6499;66.348;14.134;2023-11-21T01:03:01;0.50;;;0.50;;
12861;SDS011;6499;66.348;14.134;2023-11-21T01:08:05;0.70;;;0.50;;
12861;SDS011;6499;66.348;14.134;2023-11-21T01:19:21;0.43;;;0.40;;
12861;SDS011;6499;66.348;14.134;2023-11-21T01:21:47;0.40;;;0.40;;
12861;SDS011;6499;66.348;14.134;2023-11-21T01:24:18;0.50;;;0.30;;
12861;SDS011;6499;66.348;14.134;2023-11-21T01:26:45;0.50;;;0.40;;
12861;SDS011;6499;66.348;14.134;2023-11-21T01:29:12;0.30;;;0.30;;
12861;SDS011;6499;66.348;14.134;2023-11-21T01:31:40;0.67;;;0.50;;
12861;SDS011;6499;66.348;14.134;2023-11-21T01:34:06;0.30;;;0.30;;
12861;SDS011;6499;66.348;14.134;2023-11-21T01:36:33;0.30;;;0.30;;
12861;SDS011;6499;66.348;14.134;2023-11-21T01:39:00;0.67;;;0.30;;
12861;SDS011;6499;66.348;14.134;2023-11-21T01:41:28;0.47;;;0.43;;
12861;SDS011;6499;66.348;14.134;2023-11-21T01:43:56;0.50;;;0.30;;
12861;SDS011;6499;66.348;14.134;2023-11-21T01:46:23;0.30;;;0.30;;
12861;SDS011;6499;66.348;14.134;2023-11-21T01:48:54;0.40;;;0.40;;
12861;SDS011;6499;66.348;14.134;2023-11-21T01:51:24;0.40;;;0.40;;
12861;SDS011;6499;66.348;14.134;2023-11-21T01:53:59;0.40;;;0.40;;
12861;SDS011;6499;66.348;14.134;2023-11-21T01:56:30;0.70;;;0.40;;
12861;SDS011;6499;66.348;14.134;2023-11-21T01:58:57;0.83;;;0.40;;
12861;SDS011;6499;66.348;14.134;2023-11-21T02:01:27;0.30;;;0.30;;
12861;SDS011;6499;66.348;14.134;2023-11-21T02:03:54;0.50;;;0.40;;
12861;SDS011;6499;66.348;14.134;2023-11-21T02:06:21;0.43;;;0.40;;
12861;SDS011;6499;66.348;14.134;2023-11-21T02:08:49;0.70;;;0.40;;
12861;SDS011;6499;66.348;14.134;2023-11-21T02:11:16;0.30;;;0.30;;
12861;SDS011;6499;66.348;14.134;2023-11-21T02:13:45;0.40;;;0.40;;
12861;SDS011;6499;66.348;14.134;2023-11-21T02:16:15;0.30;;;0.30;;
12861;SDS011;6499;66.348;14.134;2023-11-21T02:18:41;0.77;;;0.53;;
12861;SDS011;6499;66.348;14.134;2023-11-21T02:21:08;0.53;;;0.40;;
12861;SDS011;6499;66.348;14.134;2023-11-21T02:23:36;0.40;;;0.40;;
12861;SDS011;6499;66.348;14.134;2023-11-21T02:26:07;0.40;;;0.33;;
12861;SDS011;6499;66.348;14.134;2023-11-21T02:28:35;0.40;;;0.33;;
12861;SDS011;6499;66.348;14.134;2023-11-21T02:31:15;0.30;;;0.30;;
12861;SDS011;6499;66.348;14.134;2023-11-21T02:33:41;0.47;;;0.37;;
12861;SDS011;6499;66.348;14.134;2023-11-21T02:36:09;0.63;;;0.50;;
12861;SDS011;6499;66.348;14.134;2023-11-21T02:38:37;0.40;;;0.40;;
12861;SDS011;6499;66.348;14.134;2023-11-21T02:41:05;0.67;;;0.40;;
12861;SDS011;6499;66.348;14.134;2023-11-21T02:43:31;0.47;;;0.40;;
12861;SDS011;6499;66.348;14.134;2023-11-21T02:45:58;0.20;;;0.20;;
12861;SDS011;6499;66.348;14.134;2023-11-21T02:48:24;0.53;;;0.23;;
12861;SDS011;6499;66.348;14.134;2023-11-21T02:50:51;0.30;;;0.30;;
12861;SDS011;6499;66.348;14.134;2023-11-21T02:53:18;0.30;;;0.30;;
12861;SDS011;6499;66.348;14.134;2023-11-21T02:55:46;0.40;;;0.40;;
12861;SDS011;6499;66.348;14.134;2023-11-21T02:58:13;0.50;;;0.43;;
12861;SDS011;6499;66.348;14.134;2023-11-21T03:00:39;0.60;;;0.30;;
12861;SDS011;6499;66.348;14.134;2023-11-21T03:03:07;0.40;;;0.40;;
12861;SDS011;6499;66.348;14.134;2023-11-21T03:05:33;0.40;;;0.40;;
12861;SDS011;6499;66.348;14.134;2023-11-21T03:08:02;0.30;;;0.30;;
12861;SDS011;6499;66.348;14.134;2023-11-21T03:10:28;0.33;;;0.33;;
12861;SDS011;6499;66.348;14.134;2023-11-21T03:12:56;0.40;;;0.33;;
12861;SDS011;6499;66.348;14.134;2023-11-21T03:15:23;0.40;;;0.40;;
12861;SDS011;6499;66.348;14.134;2023-11-21T03:17:50;0.40;;;0.40;;
12861;SDS011;6499;66.348;14.134;2023-11-21T03:20:19;0.50;;;0.40;;
12861;SDS011;6499;66.348;14.134;2023-11-21T03:22:46;0.93;;;0.30;;
12861;SDS011;6499;66.348;14.134;2023-11-21T03:25:20;0.30;;;0.30;;
12861;SDS011;6499;66.348;14.134;2023-11-21T03:27:49;0.67;;;0.50;;
12861;SDS011;6499;66.348;14.134;2023-11-21T03:30:17;0.40;;;0.30;;
12861;SDS011;6499;66.348;14.134;2023-11-21T03:32:47;0.30;;;0.30;;
12861;SDS011;6499;66.348;14.134;2023-11-21T03:35:13;0.40;;;0.40;;
12861;SDS011;6499;66.348;14.134;2023-11-21T03:37:40;0.87;;;0.27;;
12861;SDS011;6499;66.348;14.134;2023-11-21T03:40:08;0.40;;;0.40;;
12861;SDS011;6499;66.348;14.134;2023-11-21T03:42:35;0.40;;;0.40;;
12861;SDS011;6499;66.348;14.134;2023-11-21T03:45:01;0.30;;;0.30;;
12861;SDS011;6499;66.348;14.134;2023-11-21T03:47:30;1.27;;;0.50;;
12861;SDS011;6499;66.348;14.134;2023-11-21T03:49:57;0.50;;;0.30;;
12861;SDS011;6499;66.348;14.134;2023-11-21T03:52:23;0.30;;;0.30;;
12861;SDS011;6499;66.348;14.134;2023-11-21T03:54:52;0.30;;;0.30;;
12861;SDS011;6499;66.348;14.134;2023-11-21T03:57:24;0.47;;;0.30;;
12861;SDS011;6499;66.348;14.134;2023-11-21T04:00:03;0.30;;;0.30;;
12861;SDS011;6499;66.348;14.134;2023-11-21T04:02:35;0.47;;;0.40;;
12861;SDS011;6499;66.348;14.134;2023-11-21T04:05:01;0.30;;;0.30;;
12861;SDS011;6499;66.348;14.134;2023-11-21T04:07:28;0.30;;;0.30;;
12861;SDS011;6499;66.348;14.134;2023-11-21T04:09:55;0.57;;;0.40;;
12861;SDS011;6499;66.348;14.134;2023-11-21T04:12:29;0.43;;;0.43;;
12861;SDS011;6499;66.348;14.134;2023-11-21T04:14:55;0.40;;;0.40;;
12861;SDS011;6499;66.348;14.134;2023-11-21T04:17:22;0.30;;;0.30;;
12861;SDS011;6499;66.348;14.134;2023-11-21T04:19:50;0.40;;;0.40;;
12861;SDS011;6499;66.348;14.134;2023-11-21T04:22:17;0.40;;;0.40;;
12861;SDS011;6499;66.348;14.134;2023-11-21T04:24:44;0.40;;;0.40;;
12861;SDS011;6499;66.348;14.134;2023-11-21T04:27:10;0.50;;;0.23;;
12861;SDS011;6499;66.348;14.134;2023-11-21T04:29:38;0.40;;;0.40;;
12861;SDS011;6499;66.348;14.134;2023-11-21T04:32:07;0.30;;;0.30;;
12861;SDS011;6499;66.348;14.134;2023-11-21T04:34:37;0.60;;;0.50;;
12861;SDS011;6499;66.348;14.134;2023-11-21T04:37:05;0.40;;;0.40;;
12861;SDS011;6499;66.348;14.134;2023-11-21T04:39:37;0.37;;;0.37;;
12861;SDS011;6499;66.348;14.134;2023-11-21T04:42:05;1.07;;;0.40;;
12861;SDS011;6499;66.348;14.134;2023-11-21T04:44:34;0.20;;;0.20;;
12861;SDS011;6499;66.348;14.134;2023-11-21T04:47:04;0.40;;;0.40;;
12861;SDS011;6499;66.348;14.134;2023-11-21T04:49:34;0.70;;;0.40;;
12861;SDS011;6499;66.348;14.134;2023-11-21T04:52:01;2.30;;;2.10;;
12861;SDS011;6499;66.348;14.134;2023-11-21T04:54:30;2.13;;;2.03;;
12861;SDS011;6499;66.348;14.134;2023-11-21T04:56:56;0.63;;;0.60;;
12861;SDS011;6499;66.348;14.134;2023-11-21T04:59:23;0.83;;;0.83;;
12861;SDS011;6499;66.348;14.134;2023-11-21T05:01:52;1.10;;;1.00;;
12861;SDS011;6499;66.348;14.134;2023-11-21T05:04:21;0.70;;;0.50;;
12861;SDS011;6499;66.348;14.134;2023-11-21T05:06:48;1.43;;;0.70;;
12861;SDS011;6499;66.348;14.134;2023-11-21T05:09:15;0.50;;;0.50;;
12861;SDS011;6499;66.348;14.134;2023-11-21T05:11:45;0.80;;;0.70;;
12861;SDS011;6499;66.348;14.134;2023-11-21T05:14:12;1.30;;;0.87;;
12861;SDS011;6499;66.348;14.134;2023-11-21T05:16:39;0.80;;;0.60;;
12861;SDS011;6499;66.348;14.134;2023-11-21T05:19:05;0.60;;;0.60;;
12861;SDS011;6499;66.348;14.134;2023-11-21T05:21:32;0.63;;;0.50;;
12861;SDS011;6499;66.348;14.134;2023-11-21T05:23:59;0.57;;;0.57;;
12861;SDS011;6499;66.348;14.134;2023-11-21T05:26:25;1.13;;;0.50;;
12861;SDS011;6499;66.348;14.134;2023-11-21T05:28:54;0.83;;;0.50;;
12861;SDS011;6499;66.348;14.134;2023-11-21T05:31:20;0.93;;;0.60;;
12861;SDS011;6499;66.348;14.134;2023-11-21T05:33:50;0.33;;;0.33;;
12861;SDS011;6499;66.348;14.134;2023-11-21T05:36:19;0.40;;;0.30;;
12861;SDS011;6499;66.348;14.134;2023-11-21T05:38:46;0.40;;;0.40;;
12861;SDS011;6499;66.348;14.134;2023-11-21T05:41:13;0.70;;;0.70;;
12861;SDS011;6499;66.348;14.134;2023-11-21T05:43:39;1.27;;;1.00;;
12861;SDS011;6499;66.348;14.134;2023-11-21T05:46:07;2.63;;;2.30;;
12861;SDS011;6499;66.348;14.134;2023-11-21T05:48:34;2.60;;;2.10;;
12861;SDS011;6499;66.348;14.134;2023-11-21T05:51:02;1.40;;;1.27;;
12861;SDS011;6499;66.348;14.134;2023-11-21T05:53:29;0.70;;;0.70;;
12861;SDS011;6499;66.348;14.134;2023-11-21T05:55:56;1.10;;;0.50;;
12861;SDS011;6499;66.348;14.134;2023-11-21T05:58:24;0.43;;;0.43;;
12861;SDS011;6499;66.348;14.134;2023-11-21T06:00:51;0.80;;;0.57;;
12861;SDS011;6499;66.348;14.134;2023-11-21T06:03:19;1.00;;;0.90;;
12861;SDS011;6499;66.348;14.134;2023-11-21T06:05:46;0.40;;;0.40;;
12861;SDS011;6499;66.348;14.134;2023-11-21T06:08:13;0.50;;;0.50;;
12861;SDS011;6499;66.348;14.134;2023-11-21T06:10:42;0.70;;;0.60;;
12861;SDS011;6499;66.348;14.134;2023-11-21T06:13:08;2.63;;;2.43;;
12861;SDS011;6499;66.348;14.134;2023-11-21T06:15:35;1.80;;;1.70;;
12861;SDS011;6499;66.348;14.134;2023-11-21T06:18:02;3.57;;;2.10;;
12861;SDS011;6499;66.348;14.134;2023-11-21T06:20:32;5.73;;;3.07;;
12861;SDS011;6499;66.348;14.134;2023-11-21T06:22:58;7.20;;;3.23;;
12861;SDS011;6499;66.348;14.134;2023-11-21T06:25:28;25.67;;;16.73;;
12861;SDS011;6499;66.348;14.134;2023-11-21T06:27:58;6.27;;;3.30;;
12861;SDS011;6499;66.348;14.134;2023-11-21T06:30:24;3.00;;;2.70;;
12861;SDS011;6499;66.348;14.134;2023-11-21T06:32:52;3.30;;;2.63;;
12861;SDS011;6499;66.348;14.134;2023-11-21T06:35:18;2.20;;;1.50;;
12861;SDS011;6499;66.348;14.134;2023-11-21T06:37:46;2.90;;;2.00;;
12861;SDS011;6499;66.348;14.134;2023-11-21T06:40:14;3.43;;;1.73;;
12861;SDS011;6499;66.348;14.134;2023-11-21T06:42:41;4.87;;;2.67;;
12861;SDS011;6499;66.348;14.134;2023-11-21T06:45:09;5.67;;;4.23;;
12861;SDS011;6499;66.348;14.134;2023-11-21T06:47:36;6.23;;;4.30;;
12861;SDS011;6499;66.348;14.134;2023-11-21T06:50:18;5.17;;;3.23;;
12861;SDS011;6499;66.348;14.134;2023-11-21T06:52:54;4.10;;;3.20;;
12861;SDS011;6499;66.348;14.134;2023-11-21T06:55:24;2.67;;;1.77;;
12861;SDS011;6499;66.348;14.134;2023-11-21T06:57:51;2.67;;;1.80;;
12861;SDS011;6499;66.348;14.134;2023-11-21T07:00:18;2.33;;;1.70;;
12861;SDS011;6499;66.348;14.134;2023-11-21T07:02:45;2.27;;;1.30;;
12861;SDS011;6499;66.348;14.134;2023-11-21T07:05:11;1.53;;;1.03;;
12861;SDS011;6499;66.348;14.134;2023-11-21T07:07:39;1.30;;;1.17;;
12861;SDS011;6499;66.348;14.134;2023-11-21T07:10:07;0.93;;;0.70;;
12861;SDS011;6499;66.348;14.134;2023-11-21T07:12:34;0.87;;;0.80;;
12861;SDS011;6499;66.348;14.134;2023-11-21T07:15:01;0.70;;;0.60;;
12861;SDS011;6499;66.348;14.134;2023-11-21T07:17:30;0.70;;;0.60;;
12861;SDS011;6499;66.348;14.134;2023-11-21T07:19:58;0.77;;;0.77;;
12861;SDS011;6499;66.348;14.134;2023-11-21T07:22:30;1.13;;;1.03;;
12861;SDS011;6499;66.348;14.134;2023-11-21T07:25:02;0.80;;;0.80;;
12861;SDS011;6499;66.348;14.134;2023-11-21T07:27:30;1.00;;;0.80;;
12861;SDS011;6499;66.348;14.134;2023-11-21T07:30:02;1.80;;;1.17;;
12861;SDS011;6499;66.348;14.134;2023-11-21T07:32:30;4.70;;;2.87;;
12861;SDS011;6499;66.348;14.134;2023-11-21T07:34:59;7.23;;;3.97;;
12861;SDS011;6499;66.348;14.134;2023-11-21T07:37:26;7.27;;;4.23;;
12861;SDS011;6499;66.348;14.134;2023-11-21T07:39:53;1.80;;;1.23;;
12861;SDS011;6499;66.348;14.134;2023-11-21T07:42:21;0.60;;;0.60;;
12861;SDS011;6499;66.348;14.134;2023-11-21T07:44:49;0.60;;;0.60;;
12861;SDS011;6499;66.348;14.134;2023-11-21T07:47:17;0.77;;;0.60;;
12861;SDS011;6499;66.348;14.134;2023-11-21T07:49:43;0.70;;;0.70;;
12861;SDS011;6499;66.348;14.134;2023-11-21T07:52:12;0.67;;;0.60;;
12861;SDS011;6499;66.348;14.134;2023-11-21T07:54:38;1.43;;;0.60;;
12861;SDS011;6499;66.348;14.134;2023-11-21T07:57:08;1.73;;;1.10;;
12861;SDS011;6499;66.348;14.134;2023-11-21T07:59:38;1.47;;;0.77;;
12861;SDS011;6499;66.348;14.134;2023-11-21T08:02:07;5.37;;;2.97;;
12861;SDS011;6499;66.348;14.134;2023-11-21T08:04:46;4.40;;;3.57;;
12861;SDS011;6499;66.348;14.134;2023-11-21T08:07:17;5.90;;;3.73;;
12861;SDS011;6499;66.348;14.134;2023-11-21T08:09:43;6.13;;;3.20;;
12861;SDS011;6499;66.348;14.134;2023-11-21T08:12:11;5.07;;;3.63;;
12861;SDS011;6499;66.348;14.134;2023-11-21T08:14:38;7.43;;;5.10;;
12861;SDS011;6499;66.348;14.134;2023-11-21T08:17:10;8.93;;;5.33;;
12861;SDS011;6499;66.348;14.134;2023-11-21T08:19:39;5.93;;;4.23;;
12861;SDS011;6499;66.348;14.134;2023-11-21T08:22:06;7.20;;;3.73;;
12861;SDS011;6499;66.348;14.134;2023-11-21T08:24:33;2.27;;;1.50;;
12861;SDS011;6499;66.348;14.134;2023-11-21T08:27:00;12.90;;;5.10;;
12861;SDS011;6499;66.348;14.134;2023-11-21T08:29:26;10.87;;;5.03;;
12861;SDS011;6499;66.348;14.134;2023-11-21T08:31:56;8.83;;;3.83;;
12861;SDS011;6499;66.348;14.134;2023-11-21T08:34:27;4.83;;;2.80;;
12861;SDS011;6499;66.348;14.134;2023-11-21T08:36:54;4.77;;;2.40;;
12861;SDS011;6499;66.348;14.134;2023-11-21T08:39:22;10.63;;;4.20;;
12861;SDS011;6499;66.348;14.134;2023-11-21T08:41:49;13.40;;;5.23;;
12861;SDS011;6499;66.348;14.134;2023-11-21T08:44:16;14.00;;;5.30;;
12861;SDS011;6499;66.348;14.134;2023-11-21T08:46:45;11.37;;;3.40;;
12861;SDS011;6499;66.348;14.134;2023-11-21T08:49:14;7.40;;;3.53;;
12861;SDS011;6499;66.348;14.134;2023-11-21T08:51:43;13.93;;;4.90;;
12861;SDS011;6499;66.348;14.134;2023-11-21T08:54:10;10.40;;;4.00;;
12861;SDS011;6499;66.348;14.134;2023-11-21T08:56:37;22.10;;;6.73;;
12861;SDS011;6499;66.348;14.134;2023-11-21T08:59:03;15.40;;;4.33;;
12861;SDS011;6499;66.348;14.134;2023-11-21T09:01:34;5.67;;;3.30;;
12861;SDS011;6499;66.348;14.134;2023-11-21T09:04:01;8.07;;;5.20;;
12861;SDS011;6499;66.348;14.134;2023-11-21T09:06:28;7.60;;;4.10;;
12861;SDS011;6499;66.348;14.134;2023-11-21T09:08:58;7.90;;;3.60;;
12861;SDS011;6499;66.348;14.134;2023-11-21T09:11:24;6.13;;;3.00;;
12861;SDS011;6499;66.348;14.134;2023-11-21T09:13:56;5.73;;;3.80;;
12861;SDS011;6499;66.348;14.134;2023-11-21T09:16:24;7.13;;;3.23;;
12861;SDS011;6499;66.348;14.134;2023-11-21T09:18:53;2.43;;;1.97;;
12861;SDS011;6499;66.348;14.134;2023-11-21T09:21:20;6.60;;;3.80;;
12861;SDS011;6499;66.348;14.134;2023-11-21T09:23:47;4.77;;;2.70;;
12861;SDS011;6499;66.348;14.134;2023-11-21T09:26:25;1.47;;;1.37;;
12861;SDS011;6499;66.348;14.134;2023-11-21T09:28:52;2.87;;;1.83;;
12861;SDS011;6499;66.348;14.134;2023-11-21T09:31:24;3.60;;;3.30;;
12861;SDS011;6499;66.348;14.134;2023-11-21T09:33:53;1.67;;;1.57;;
12861;SDS011;6499;66.348;14.134;2023-11-21T09:36:22;5.87;;;1.83;;
12861;SDS011;6499;66.348;14.134;2023-11-21T09:38:51;3.23;;;1.43;;
12861;SDS011;6499;66.348;14.134;2023-11-21T09:41:21;1.50;;;1.00;;
12861;SDS011;6499;66.348;14.134;2023-11-21T09:43:51;0.90;;;0.80;;
12861;SDS011;6499;66.348;14.134;2023-11-21T09:46:21;2.83;;;1.50;;
12861;SDS011;6499;66.348;14.134;2023-11-21T09:48:51;1.87;;;1.00;;
12861;SDS011;6499;66.348;14.134;2023-11-21T09:51:21;2.50;;;1.43;;
12861;SDS011;6499;66.348;14.134;2023-11-21T09:53:50;4.77;;;2.27;;
12861;SDS011;6499;66.348;14.134;2023-11-21T09:56:23;10.93;;;3.20;;
12861;SDS011;6499;66.348;14.134;2023-11-21T09:58:53;11.27;;;3.83;;
12861;SDS011;6499;66.348;14.134;2023-11-21T10:01:22;10.73;;;3.70;;
12861;SDS011;6499;66.348;14.134;2023-11-21T10:03:58;12.47;;;5.07;;
12861;SDS011;6499;66.348;14.134;2023-11-21T10:06:24;12.27;;;3.50;;
12861;SDS011;6499;66.348;14.134;2023-11-21T10:08:52;12.43;;;6.40;;
12861;SDS011;6499;66.348;14.134;2023-11-21T10:11:21;16.60;;;6.43;;
12861;SDS011;6499;66.348;14.134;2023-11-21T10:13:49;14.30;;;6.37;;
12861;SDS011;6499;66.348;14.134;2023-11-21T10:16:24;15.13;;;6.07;;
12861;SDS011;6499;66.348;14.134;2023-11-21T10:18:52;22.03;;;8.40;;
12861;SDS011;6499;66.348;14.134;2023-11-21T10:21:19;36.17;;;9.57;;
12861;SDS011;6499;66.348;14.134;2023-11-21T10:23:46;40.90;;;9.17;;
12861;SDS011;6499;66.348;14.134;2023-11-21T10:28:58;28.70;;;8.10;;
12861;SDS011;6499;66.348;14.134;2023-11-21T10:31:26;21.17;;;6.23;;
12861;SDS011;6499;66.348;14.134;2023-11-21T10:33:56;21.23;;;6.23;;
12861;SDS011;6499;66.348;14.134;2023-11-21T10:36:33;12.97;;;4.17;;
12861;SDS011;6499;66.348;14.134;2023-11-21T10:39:03;2.93;;;1.30;;
12861;SDS011;6499;66.348;14.134;2023-11-21T10:41:30;5.30;;;1.40;;
12861;SDS011;6499;66.348;14.134;2023-11-21T10:43:56;4.07;;;0.93;;
12861;SDS011;6499;66.348;14.134;2023-11-21T10:46:23;1.77;;;0.90;;
12861;SDS011;6499;66.348;14.134;2023-11-21T10:48:55;0.87;;;0.73;;
12861;SDS011;6499;66.348;14.134;2023-11-21T10:51:22;2.10;;;0.70;;
12861;SDS011;6499;66.348;14.134;2023-11-21T10:53:49;1.30;;;0.67;;
12861;SDS011;6499;66.348;14.134;2023-11-21T10:56:20;4.07;;;1.23;;
12861;SDS011;6499;66.348;14.134;2023-11-21T10:58:49;1.50;;;0.93;;
12861;SDS011;6499;66.348;14.134;2023-11-21T11:01:17;2.83;;;1.70;;
12861;SDS011;6499;66.348;14.134;2023-11-21T11:03:49;6.80;;;3.90;;
12861;SDS011;6499;66.348;14.134;2023-11-21T11:06:24;5.23;;;3.33;;
12861;SDS011;6499;66.348;14.134;2023-11-21T11:08:52;5.53;;;3.33;;
12861;SDS011;6499;66.348;14.134;2023-11-21T11:11:19;3.67;;;2.50;;
12861;SDS011;6499;66.348;14.134;2023-11-21T11:13:46;2.60;;;1.77;;
12861;SDS011;6499;66.348;14.134;2023-11-21T11:16:12;2.40;;;1.70;;
12861;SDS011;6499;66.348;14.134;2023-11-21T11:18:42;1.97;;;1.77;;
12861;SDS011;6499;66.348;14.134;2023-11-21T11:21:11;2.27;;;1.63;;
12861;SDS011;6499;66.348;14.134;2023-11-21T11:23:49;3.13;;;1.87;;
12861;SDS011;6499;66.348;14.134;2023-11-21T11:26:24;4.27;;;1.80;;
12861;SDS011;6499;66.348;14.134;2023-11-21T11:28:57;2.07;;;1.60;;
12861;SDS011;6499;66.348;14.134;2023-11-21T11:31:28;1.70;;;1.30;;
12861;SDS011;6499;66.348;14.134;2023-11-21T11:34:04;2.50;;;1.33;;
12861;SDS011;6499;66.348;14.134;2023-11-21T11:36:35;2.43;;;1.20;;
12861;SDS011;6499;66.348;14.134;2023-11-21T11:41:48;11.97;;;5.07;;
12861;SDS011;6499;66.348;14.134;2023-11-21T11:47:00;10.17;;;4.67;;
12861;SDS011;6499;66.348;14.134;2023-11-21T11:49:32;4.47;;;2.53;;
12861;SDS011;6499;66.348;14.134;2023-11-21T11:54:46;4.23;;;2.10;;
12861;SDS011;6499;66.348;14.134;2023-11-21T11:57:16;3.23;;;1.57;;
12861;SDS011;6499;66.348;14.134;2023-11-21T12:02:24;2.93;;;1.90;;
12861;SDS011;6499;66.348;14.134;2023-11-21T12:04:58;4.30;;;2.00;;
12861;SDS011;6499;66.348;14.134;2023-11-21T12:07:25;6.27;;;2.43;;
12861;SDS011;6499;66.348;14.134;2023-11-21T12:10:05;10.87;;;3.37;;
12861;SDS011;6499;66.348;14.134;2023-11-21T12:12:33;8.37;;;2.30;;
12861;SDS011;6499;66.348;14.134;2023-11-21T12:15:01;6.00;;;1.93;;
12861;SDS011;6499;66.348;14.134;2023-11-21T12:17:29;2.70;;;1.23;;
12861;SDS011;6499;66.348;14.134;2023-11-21T12:20:01;1.30;;;0.90;;
12861;SDS011;6499;66.348;14.134;2023-11-21T12:22:28;1.00;;;0.80;;
12861;SDS011;6499;66.348;14.134;2023-11-21T12:24:56;1.50;;;1.10;;
12861;SDS011;6499;66.348;14.134;2023-11-21T12:27:24;2.23;;;1.17;;
12861;SDS011;6499;66.348;14.134;2023-11-21T12:29:52;2.00;;;1.00;;
12861;SDS011;6499;66.348;14.134;2023-11-21T12:32:21;1.80;;;1.00;;
12861;SDS011;6499;66.348;14.134;2023-11-21T12:34:47;1.77;;;0.90;;
12861;SDS011;6499;66.348;14.134;2023-11-21T12:37:14;2.00;;;0.80;;
12861;SDS011;6499;66.348;14.134;2023-11-21T12:39:42;1.20;;;1.03;;
12861;SDS011;6499;66.348;14.134;2023-11-21T12:42:08;2.27;;;0.77;;
12861;SDS011;6499;66.348;14.134;2023-11-21T12:44:37;2.50;;;0.90;;
12861;SDS011;6499;66.348;14.134;2023-11-21T12:47:08;4.53;;;2.37;;
12861;SDS011;6499;66.348;14.134;2023-11-21T12:49:40;8.73;;;2.37;;
12861;SDS011;6499;66.348;14.134;2023-11-21T12:52:09;5.03;;;3.13;;
12861;SDS011;6499;66.348;14.134;2023-11-21T12:54:36;3.70;;;2.43;;
12861;SDS011;6499;66.348;14.134;2023-11-21T12:57:03;2.93;;;1.83;;
12861;SDS011;6499;66.348;14.134;2023-11-21T12:59:33;3.70;;;2.07;;
12861;SDS011;6499;66.348;14.134;2023-11-21T13:02:02;9.60;;;5.13;;
12861;SDS011;6499;66.348;14.134;2023-11-21T13:04:33;9.00;;;4.93;;
12861;SDS011;6499;66.348;14.134;2023-11-21T13:07:03;14.37;;;8.00;;
12861;SDS011;6499;66.348;14.134;2023-11-21T13:09:32;6.27;;;4.00;;
12861;SDS011;6499;66.348;14.134;2023-11-21T13:11:59;14.70;;;6.07;;
12861;SDS011;6499;66.348;14.134;2023-11-21T13:14:29;8.33;;;4.60;;
12861;SDS011;6499;66.348;14.134;2023-11-21T13:17:03;5.37;;;3.57;;
12861;SDS011;6499;66.348;14.134;2023-11-21T13:19:36;13.20;;;6.77;;
12861;SDS011;6499;66.348;14.134;2023-11-21T13:22:06;10.13;;;6.50;;
12861;SDS011;6499;66.348;14.134;2023-11-21T13:24:36;9.07;;;5.47;;
12861;SDS011;6499;66.348;14.134;2023-11-21T13:27:05;6.00;;;3.30;;
12861;SDS011;6499;66.348;14.134;2023-11-21T13:29:35;11.27;;;5.93;;
12861;SDS011;6499;66.348;14.134;2023-11-21T13:32:10;12.13;;;6.23;;
12861;SDS011;6499;66.348;14.134;2023-11-21T13:34:39;20.47;;;10.40;;
12861;SDS011;6499;66.348;14.134;2023-11-21T13:37:10;17.17;;;8.37;;
12861;SDS011;6499;66.348;14.134;2023-11-21T13:39:37;20.93;;;9.83;;
12861;SDS011;6499;66.348;14.134;2023-11-21T13:42:09;16.40;;;8.37;;
12861;SDS011;6499;66.348;14.134;2023-11-21T13:44:37;11.20;;;5.60;;
12861;SDS011;6499;66.348;14.134;2023-11-21T13:47:09;10.37;;;6.10;;
12861;SDS011;6499;66.348;14.134;2023-11-21T13:49:35;6.93;;;3.40;;
12861;SDS011;6499;66.348;14.134;2023-11-21T13:52:07;4.30;;;2.00;;
12861;SDS011;6499;66.348;14.134;2023-11-21T13:54:34;3.10;;;1.97;;
12861;SDS011;6499;66.348;14.134;2023-11-21T13:57:00;2.73;;;1.90;;
12861;SDS011;6499;66.348;14.134;2023-11-21T13:59:28;4.83;;;2.80;;
12861;SDS011;6499;66.348;14.134;2023-11-21T14:01:57;2.87;;;2.00;;
12861;SDS011;6499;66.348;14.134;2023-11-21T14:04:25;2.33;;;1.30;;
12861;SDS011;6499;66.348;14.134;2023-11-21T14:07:13;2.30;;;1.63;;
12861;SDS011;6499;66.348;14.134;2023-11-21T14:09:51;2.97;;;1.53;;
12861;SDS011;6499;66.348;14.134;2023-11-21T14:12:18;5.10;;;1.80;;
12861;SDS011;6499;66.348;14.134;2023-11-21T14:14:44;3.13;;;1.60;;
12861;SDS011;6499;66.348;14.134;2023-11-21T14:17:12;2.13;;;1.73;;
12861;SDS011;6499;66.348;14.134;2023-11-21T14:19:39;1.67;;;1.30;;
12861;SDS011;6499;66.348;14.134;2023-11-21T14:22:08;1.53;;;1.30;;
12861;SDS011;6499;66.348;14.134;2023-11-21T14:24:37;3.57;;;2.97;;
12861;SDS011;6499;66.348;14.134;2023-11-21T14:27:09;3.80;;;2.27;;
12861;SDS011;6499;66.348;14.134;2023-11-21T14:29:36;1.77;;;1.47;;
12861;SDS011;6499;66.348;14.134;2023-11-21T14:32:05;2.13;;;1.60;;
12861;SDS011;6499;66.348;14.134;2023-11-21T14:34:31;13.57;;;5.90;;
12861;SDS011;6499;66.348;14.134;2023-11-21T14:36:58;10.03;;;6.00;;
12861;SDS011;6499;66.348;14.134;2023-11-21T14:39:28;2.27;;;2.00;;
12861;SDS011;6499;66.348;14.134;2023-11-21T14:42:01;2.77;;;2.23;;
12861;SDS011;6499;66.348;14.134;2023-11-21T14:44:29;1.37;;;1.23;;
12861;SDS011;6499;66.348;14.134;2023-11-21T14:47:00;1.50;;;1.37;;
12861;SDS011;6499;66.348;14.134;2023-11-21T14:49:31;2.30;;;1.83;;
12861;SDS011;6499;66.348;14.134;2023-11-21T14:52:09;4.77;;;2.80;;
12861;SDS011;6499;66.348;14.134;2023-11-21T14:54:52;3.27;;;2.17;;
12861;SDS011;6499;66.348;14.134;2023-11-21T14:57:40;3.70;;;2.40;;
12861;SDS011;6499;66.348;14.134;2023-11-21T15:00:05;6.70;;;3.40;;
12861;SDS011;6499;66.348;14.134;2023-11-21T15:02:52;5.37;;;3.10;;
12861;SDS011;6499;66.348;14.134;2023-11-21T15:05:18;3.50;;;1.90;;
12861;SDS011;6499;66.348;14.134;2023-11-21T15:08:00;2.30;;;1.50;;
12861;SDS011;6499;66.348;14.134;2023-11-21T15:10:48;4.57;;;3.63;;
12861;SDS011;6499;66.348;14.134;2023-11-21T15:13:20;6.93;;;3.33;;
12861;SDS011;6499;66.348;14.134;2023-11-21T15:15:47;4.03;;;2.60;;
12861;SDS011;6499;66.348;14.134;2023-11-21T15:18:13;1.93;;;1.40;;
12861;SDS011;6499;66.348;14.134;2023-11-21T15:20:47;1.73;;;1.50;;